Atalanti — 5BYY2 — position and weather

sailwx.info

Track history (hours):
 
Tides and Currents Weather Stations Pressure Air Temp Water Temp Dewpoint Dewpoint Depression Visibility Wind Speed Wind Dir Waves Ship Positions

Atalanti

Last reported at 2014-Nov-23 03:33 UTC. Time now 2014-Nov-24 00:13 UTC.
Position N 35°59' W 005°12'.

Length 97 m; draft 4 m.

Type: Other ship. MMSI: 212279000.

Date/timePositionNaut miles runAvg speedWind from/ knotsBaromVisibWave heightAir tempDewpointWater temp
2014-Nov-23 03:33N 35°59' W 005°12'9 9.1
2014-Nov-23 02:33N 35°58' W 005°23'178 7.8
2014-Nov-22 03:32N 36°29' W 009°01'8 8.3
2014-Nov-22 02:33N 36°31' W 009°11'39 7.4
2014-Nov-21 21:16N 37°03' W 009°39'81 7.5
2014-Nov-21 10:30N 38°22' W 010°03'  
2014-Nov-15 17:13N 53°33' W 003°28'5 8.0
2014-Nov-15 16:33N 53°33' W 003°19'1 0.6
2014-Nov-15 15:27N 53°33' W 003°18'2 1.9
2014-Nov-15 14:33N 53°31' W 003°16'6 6.2
2014-Nov-15 13:33N 53°30' W 003°06'4 4.0
2014-Nov-15 12:31N 53°27' W 003°01'0 0.4
2014-Nov-15 11:34N 53°27' W 003°01'0 0.3
2014-Nov-15 10:24N 53°28' W 003°02'0 0.0
2014-Nov-15 09:31N 53°28' W 003°02'0 0.0
2014-Nov-15 08:31N 53°28' W 003°02'0 0.0
2014-Nov-15 07:33N 53°28' W 003°02'1 0.6
2014-Nov-15 06:33N 53°27' W 003°01'0 0.2
2014-Nov-15 05:33N 53°27' W 003°01'1 1.5
2014-Nov-15 04:33N 53°28' W 003°03'6 5.9
2014-Nov-15 03:33N 53°32' W 003°11'6 5.7
2014-Nov-15 02:33N 53°31' W 003°20'2 1.5
2014-Nov-15 01:33N 53°30' W 003°22'0 0.0
2014-Nov-15 00:33N 53°30' W 003°22'0 0.0
2014-Nov-14 23:33N 53°30' W 003°22'0 0.0
2014-Nov-14 22:33N 53°30' W 003°22'0 0.0
2014-Nov-14 21:32N 53°30' W 003°22'0 0.0
2014-Nov-14 20:31N 53°30' W 003°22'0 0.0
2014-Nov-14 19:32N 53°30' W 003°22'2 2.3
2014-Nov-14 18:33N 53°28' W 003°19'6 5.7
2014-Nov-14 17:33N 53°27' W 003°10'1 1.1
2014-Nov-14 16:33N 53°26' W 003°08'1 0.6
2014-Nov-14 15:33N 53°26' W 003°08'0 0.2
2014-Nov-14 14:33N 53°26' W 003°08'1 0.5
2014-Nov-14 12:33N 53°27' W 003°09'1 0.7
2014-Nov-14 11:33N 53°27' W 003°10'0 0.0
2014-Nov-14 10:33N 53°27' W 003°10'0 0.0
2014-Nov-14 09:33N 53°27' W 003°10'0 0.0
2014-Nov-14 08:33N 53°27' W 003°10'0 0.0
2014-Nov-14 07:33N 53°27' W 003°10'0 0.0
2014-Nov-14 06:33N 53°27' W 003°10'0 0.0
2014-Nov-14 05:33N 53°27' W 003°10'0 0.2
2014-Nov-14 04:33N 53°27' W 003°10'2 1.7
2014-Nov-14 03:33N 53°26' W 003°08'0 0.0
2014-Nov-14 02:33N 53°26' W 003°08'0 0.3
2014-Nov-14 01:33N 53°26' W 003°08'1 0.7
2014-Nov-14 00:33N 53°27' W 003°09'2 1.7
2014-Nov-13 23:33N 53°27' W 003°11'4 3.8
2014-Nov-13 22:33N 53°27' W 003°18'0 0.0
2014-Nov-13 21:32N 53°27' W 003°18'0 0.0
2014-Nov-13 20:33N 53°27' W 003°18'0 0.0
2014-Nov-13 19:33N 53°27' W 003°18'0 0.0
2014-Nov-13 18:33N 53°27' W 003°18'0 0.2
2014-Nov-13 17:33N 53°27' W 003°18'5 4.7
2014-Nov-13 16:33N 53°27' W 003°10'2 1.6
2014-Nov-13 15:33N 53°26' W 003°08'0 0.0
2014-Nov-13 14:33N 53°26' W 003°08'0 0.1
2014-Nov-13 13:33N 53°26' W 003°08'0 0.4
2014-Nov-13 12:33N 53°26' W 003°08'4 3.9
2014-Nov-13 11:33N 53°27' W 003°14'6 6.1
2014-Nov-13 10:33N 53°30' W 003°24'6 5.6
2014-Nov-13 09:31N 53°32' W 003°33'0 0.1
2014-Nov-13 08:34N 53°32' W 003°33'0 0.0
2014-Nov-13 07:30N 53°32' W 003°33'0 0.0
2014-Nov-13 06:26N 53°32' W 003°33'0 0.0
2014-Nov-13 05:28N 53°32' W 003°33'0 0.0
2014-Nov-13 04:04N 53°32' W 003°33'  
Track history (hours):
 
Tides and Currents Weather Stations Pressure Air Temp Water Temp Dewpoint Dewpoint Depression Visibility Wind Speed Wind Dir Waves Ship Positions

Atalanti

Last reported at 2014-Nov-23 03:33 UTC. Time now 2014-Nov-24 00:13 UTC.
Position N 35°59' W 005°12'.

Length 97 m; draft 4 m.

Type: Other ship. MMSI: 212279000.

Date/timePositionNaut miles runAvg speedWind from/ knotsBaromVisibWave heightAir tempDewpointWater temp
2014-Nov-23 03:33N 35°59' W 005°12'9 9.1
2014-Nov-23 02:33N 35°58' W 005°23'178 7.8
2014-Nov-22 03:32N 36°29' W 009°01'8 8.3
2014-Nov-22 02:33N 36°31' W 009°11'39 7.4
2014-Nov-21 21:16N 37°03' W 009°39'81 7.5
2014-Nov-21 10:30N 38°22' W 010°03'  
2014-Nov-15 17:13N 53°33' W 003°28'5 8.0
2014-Nov-15 16:33N 53°33' W 003°19'1 0.6
2014-Nov-15 15:27N 53°33' W 003°18'2 1.9
2014-Nov-15 14:33N 53°31' W 003°16'6 6.2
2014-Nov-15 13:33N 53°30' W 003°06'4 4.0
2014-Nov-15 12:31N 53°27' W 003°01'0 0.4
2014-Nov-15 11:34N 53°27' W 003°01'0 0.3
2014-Nov-15 10:24N 53°28' W 003°02'0 0.0
2014-Nov-15 09:31N 53°28' W 003°02'0 0.0
2014-Nov-15 08:31N 53°28' W 003°02'0 0.0
2014-Nov-15 07:33N 53°28' W 003°02'1 0.6
2014-Nov-15 06:33N 53°27' W 003°01'0 0.2
2014-Nov-15 05:33N 53°27' W 003°01'1 1.5
2014-Nov-15 04:33N 53°28' W 003°03'6 5.9
2014-Nov-15 03:33N 53°32' W 003°11'6 5.7
2014-Nov-15 02:33N 53°31' W 003°20'2 1.5
2014-Nov-15 01:33N 53°30' W 003°22'0 0.0
2014-Nov-15 00:33N 53°30' W 003°22'0 0.0
2014-Nov-14 23:33N 53°30' W 003°22'0 0.0
2014-Nov-14 22:33N 53°30' W 003°22'0 0.0
2014-Nov-14 21:32N 53°30' W 003°22'0 0.0
2014-Nov-14 20:31N 53°30' W 003°22'0 0.0
2014-Nov-14 19:32N 53°30' W 003°22'2 2.3
2014-Nov-14 18:33N 53°28' W 003°19'6 5.7
2014-Nov-14 17:33N 53°27' W 003°10'1 1.1
2014-Nov-14 16:33N 53°26' W 003°08'1 0.6
2014-Nov-14 15:33N 53°26' W 003°08'0 0.2
2014-Nov-14 14:33N 53°26' W 003°08'1 0.5
2014-Nov-14 12:33N 53°27' W 003°09'1 0.7
2014-Nov-14 11:33N 53°27' W 003°10'0 0.0
2014-Nov-14 10:33N 53°27' W 003°10'0 0.0
2014-Nov-14 09:33N 53°27' W 003°10'0 0.0
2014-Nov-14 08:33N 53°27' W 003°10'0 0.0
2014-Nov-14 07:33N 53°27' W 003°10'0 0.0
2014-Nov-14 06:33N 53°27' W 003°10'0 0.0
2014-Nov-14 05:33N 53°27' W 003°10'0 0.2
2014-Nov-14 04:33N 53°27' W 003°10'2 1.7
2014-Nov-14 03:33N 53°26' W 003°08'0 0.0
2014-Nov-14 02:33N 53°26' W 003°08'0 0.3
2014-Nov-14 01:33N 53°26' W 003°08'1 0.7
2014-Nov-14 00:33N 53°27' W 003°09'2 1.7
2014-Nov-13 23:33N 53°27' W 003°11'4 3.8
2014-Nov-13 22:33N 53°27' W 003°18'0 0.0
2014-Nov-13 21:32N 53°27' W 003°18'0 0.0
2014-Nov-13 20:33N 53°27' W 003°18'0 0.0
2014-Nov-13 19:33N 53°27' W 003°18'0 0.0
2014-Nov-13 18:33N 53°27' W 003°18'0 0.2
2014-Nov-13 17:33N 53°27' W 003°18'5 4.7
2014-Nov-13 16:33N 53°27' W 003°10'2 1.6
2014-Nov-13 15:33N 53°26' W 003°08'0 0.0
2014-Nov-13 14:33N 53°26' W 003°08'0 0.1
2014-Nov-13 13:33N 53°26' W 003°08'0 0.4
2014-Nov-13 12:33N 53°26' W 003°08'4 3.9
2014-Nov-13 11:33N 53°27' W 003°14'6 6.1
2014-Nov-13 10:33N 53°30' W 003°24'6 5.6
2014-Nov-13 09:31N 53°32' W 003°33'0 0.1
2014-Nov-13 08:34N 53°32' W 003°33'0 0.0
2014-Nov-13 07:30N 53°32' W 003°33'0 0.0
2014-Nov-13 06:26N 53°32' W 003°33'0 0.0
2014-Nov-13 05:28N 53°32' W 003°33'0 0.0
2014-Nov-13 04:04N 53°32' W 003°33'  

Dump ship's entire track history